sensor_id;sensor_type;location;lat;lon;timestamp;P1;durP1;ratioP1;P2;durP2;ratioP2
23129;SDS011;11734;51.046;13.778;2023-02-28T00:00:00;6.50;;;5.23;;
23129;SDS011;11734;51.046;13.778;2023-02-28T00:02:35;7.20;;;5.10;;
23129;SDS011;11734;51.046;13.778;2023-02-28T00:05:03;6.67;;;5.13;;
23129;SDS011;11734;51.046;13.778;2023-02-28T00:07:30;7.27;;;4.90;;
23129;SDS011;11734;51.046;13.778;2023-02-28T00:09:58;7.90;;;5.17;;
23129;SDS011;11734;51.046;13.778;2023-02-28T00:12:26;6.30;;;5.03;;
23129;SDS011;11734;51.046;13.778;2023-02-28T00:14:53;5.53;;;4.83;;
23129;SDS011;11734;51.046;13.778;2023-02-28T00:17:20;6.00;;;5.00;;
23129;SDS011;11734;51.046;13.778;2023-02-28T00:19:48;6.83;;;5.00;;
23129;SDS011;11734;51.046;13.778;2023-02-28T00:22:16;5.80;;;4.83;;
23129;SDS011;11734;51.046;13.778;2023-02-28T00:24:43;6.70;;;5.33;;
23129;SDS011;11734;51.046;13.778;2023-02-28T00:27:11;8.00;;;5.43;;
23129;SDS011;11734;51.046;13.778;2023-02-28T00:29:38;7.17;;;5.67;;
23129;SDS011;11734;51.046;13.778;2023-02-28T00:32:06;6.30;;;5.60;;
23129;SDS011;11734;51.046;13.778;2023-02-28T00:34:33;5.87;;;5.27;;
23129;SDS011;11734;51.046;13.778;2023-02-28T00:37:04;9.40;;;5.63;;
23129;SDS011;11734;51.046;13.778;2023-02-28T00:39:35;8.63;;;6.07;;
23129;SDS011;11734;51.046;13.778;2023-02-28T00:42:03;8.20;;;5.83;;
23129;SDS011;11734;51.046;13.778;2023-02-28T00:44:30;6.37;;;5.50;;
23129;SDS011;11734;51.046;13.778;2023-02-28T00:46:58;7.00;;;5.27;;
23129;SDS011;11734;51.046;13.778;2023-02-28T00:49:26;6.60;;;5.13;;
23129;SDS011;11734;51.046;13.778;2023-02-28T00:51:54;7.17;;;5.23;;
23129;SDS011;11734;51.046;13.778;2023-02-28T00:54:22;7.27;;;5.30;;
23129;SDS011;11734;51.046;13.778;2023-02-28T00:56:49;6.73;;;5.20;;
23129;SDS011;11734;51.046;13.778;2023-02-28T00:59:17;6.93;;;5.37;;
23129;SDS011;11734;51.046;13.778;2023-02-28T01:01:45;7.53;;;5.47;;
23129;SDS011;11734;51.046;13.778;2023-02-28T01:04:13;7.97;;;5.70;;
23129;SDS011;11734;51.046;13.778;2023-02-28T01:06:41;6.67;;;5.50;;
23129;SDS011;11734;51.046;13.778;2023-02-28T01:09:09;6.50;;;5.33;;
23129;SDS011;11734;51.046;13.778;2023-02-28T01:11:36;7.67;;;5.47;;
23129;SDS011;11734;51.046;13.778;2023-02-28T01:14:04;7.73;;;5.57;;
23129;SDS011;11734;51.046;13.778;2023-02-28T01:16:31;8.20;;;5.50;;
23129;SDS011;11734;51.046;13.778;2023-02-28T01:18:59;7.97;;;5.70;;
23129;SDS011;11734;51.046;13.778;2023-02-28T01:21:26;7.80;;;5.47;;
23129;SDS011;11734;51.046;13.778;2023-02-28T01:23:55;7.07;;;5.10;;
23129;SDS011;11734;51.046;13.778;2023-02-28T01:26:23;7.73;;;5.23;;
23129;SDS011;11734;51.046;13.778;2023-02-28T01:28:51;7.03;;;4.53;;
23129;SDS011;11734;51.046;13.778;2023-02-28T01:31:19;6.67;;;4.73;;
23129;SDS011;11734;51.046;13.778;2023-02-28T01:33:47;6.27;;;4.97;;
23129;SDS011;11734;51.046;13.778;2023-02-28T01:36:24;8.83;;;5.60;;
23129;SDS011;11734;51.046;13.778;2023-02-28T01:38:54;6.17;;;5.30;;
23129;SDS011;11734;51.046;13.778;2023-02-28T01:41:26;7.87;;;5.37;;
23129;SDS011;11734;51.046;13.778;2023-02-28T01:44:04;7.37;;;5.17;;
23129;SDS011;11734;51.046;13.778;2023-02-28T01:46:33;7.77;;;5.13;;
23129;SDS011;11734;51.046;13.778;2023-02-28T01:51:42;6.83;;;4.90;;
23129;SDS011;11734;51.046;13.778;2023-02-28T01:54:12;7.47;;;4.90;;
23129;SDS011;11734;51.046;13.778;2023-02-28T01:56:46;6.73;;;5.20;;
23129;SDS011;11734;51.046;13.778;2023-02-28T01:59:19;6.87;;;5.10;;
23129;SDS011;11734;51.046;13.778;2023-02-28T02:01:48;7.97;;;5.60;;
23129;SDS011;11734;51.046;13.778;2023-02-28T02:04:36;7.07;;;5.50;;
23129;SDS011;11734;51.046;13.778;2023-02-28T02:07:04;7.77;;;5.70;;
23129;SDS011;11734;51.046;13.778;2023-02-28T02:09:32;7.73;;;5.40;;
23129;SDS011;11734;51.046;13.778;2023-02-28T02:11:59;7.00;;;5.20;;
23129;SDS011;11734;51.046;13.778;2023-02-28T02:14:31;10.00;;;5.60;;
23129;SDS011;11734;51.046;13.778;2023-02-28T02:17:06;7.37;;;5.40;;
23129;SDS011;11734;51.046;13.778;2023-02-28T02:25:11;7.23;;;5.70;;
23129;SDS011;11734;51.046;13.778;2023-02-28T02:27:53;8.50;;;5.90;;
23129;SDS011;11734;51.046;13.778;2023-02-28T02:38:11;7.03;;;5.63;;
23129;SDS011;11734;51.046;13.778;2023-02-28T02:40:43;7.70;;;5.80;;
23129;SDS011;11734;51.046;13.778;2023-02-28T02:43:19;8.67;;;6.07;;
23129;SDS011;11734;51.046;13.778;2023-02-28T02:45:52;6.67;;;5.63;;
23129;SDS011;11734;51.046;13.778;2023-02-28T02:48:21;8.60;;;6.10;;
23129;SDS011;11734;51.046;13.778;2023-02-28T02:50:54;8.93;;;5.90;;
23129;SDS011;11734;51.046;13.778;2023-02-28T02:53:24;7.47;;;6.43;;
23129;SDS011;11734;51.046;13.778;2023-02-28T02:55:54;8.37;;;6.60;;
23129;SDS011;11734;51.046;13.778;2023-02-28T02:58:24;8.17;;;6.23;;
23129;SDS011;11734;51.046;13.778;2023-02-28T03:00:55;7.70;;;6.37;;
23129;SDS011;11734;51.046;13.778;2023-02-28T03:03:24;9.73;;;7.00;;
23129;SDS011;11734;51.046;13.778;2023-02-28T03:05:59;9.60;;;6.80;;
23129;SDS011;11734;51.046;13.778;2023-02-28T03:08:28;8.40;;;6.67;;
23129;SDS011;11734;51.046;13.778;2023-02-28T03:10:56;8.20;;;6.53;;
23129;SDS011;11734;51.046;13.778;2023-02-28T03:18:53;9.53;;;6.80;;
23129;SDS011;11734;51.046;13.778;2023-02-28T03:21:31;9.50;;;6.73;;
23129;SDS011;11734;51.046;13.778;2023-02-28T03:24:19;10.53;;;7.30;;
23129;SDS011;11734;51.046;13.778;2023-02-28T03:26:50;9.53;;;6.97;;
23129;SDS011;11734;51.046;13.778;2023-02-28T03:30:23;9.87;;;6.80;;
23129;SDS011;11734;51.046;13.778;2023-02-28T03:32:21;9.73;;;7.50;;
23129;SDS011;11734;51.046;13.778;2023-02-28T03:34:55;10.40;;;7.10;;
23129;SDS011;11734;51.046;13.778;2023-02-28T03:37:24;9.23;;;7.57;;
23129;SDS011;11734;51.046;13.778;2023-02-28T03:39:57;8.80;;;7.43;;
23129;SDS011;11734;51.046;13.778;2023-02-28T03:42:27;9.27;;;8.00;;
23129;SDS011;11734;51.046;13.778;2023-02-28T03:44:59;10.20;;;7.87;;
23129;SDS011;11734;51.046;13.778;2023-02-28T03:47:35;11.43;;;8.70;;
23129;SDS011;11734;51.046;13.778;2023-02-28T03:50:32;9.33;;;7.83;;
23129;SDS011;11734;51.046;13.778;2023-02-28T03:55:33;11.60;;;8.20;;
23129;SDS011;11734;51.046;13.778;2023-02-28T03:58:08;13.00;;;8.93;;
23129;SDS011;11734;51.046;13.778;2023-02-28T04:00:50;11.23;;;8.80;;
23129;SDS011;11734;51.046;13.778;2023-02-28T04:03:19;9.57;;;8.53;;
23129;SDS011;11734;51.046;13.778;2023-02-28T04:05:49;9.83;;;7.70;;
23129;SDS011;11734;51.046;13.778;2023-02-28T04:08:17;10.67;;;8.00;;
23129;SDS011;11734;51.046;13.778;2023-02-28T04:10:45;13.03;;;9.13;;
23129;SDS011;11734;51.046;13.778;2023-02-28T04:13:15;12.20;;;9.03;;
23129;SDS011;11734;51.046;13.778;2023-02-28T04:15:42;12.33;;;8.50;;
23129;SDS011;11734;51.046;13.778;2023-02-28T04:18:09;11.97;;;8.40;;
23129;SDS011;11734;51.046;13.778;2023-02-28T04:20:37;14.97;;;11.17;;
23129;SDS011;11734;51.046;13.778;2023-02-28T04:23:04;11.63;;;9.70;;
23129;SDS011;11734;51.046;13.778;2023-02-28T04:25:31;11.50;;;9.13;;
23129;SDS011;11734;51.046;13.778;2023-02-28T04:27:59;12.67;;;9.17;;
23129;SDS011;11734;51.046;13.778;2023-02-28T04:30:26;14.17;;;9.93;;
23129;SDS011;11734;51.046;13.778;2023-02-28T04:32:53;12.63;;;9.50;;
23129;SDS011;11734;51.046;13.778;2023-02-28T04:35:20;12.30;;;9.47;;
23129;SDS011;11734;51.046;13.778;2023-02-28T04:37:48;11.80;;;9.20;;
23129;SDS011;11734;51.046;13.778;2023-02-28T04:40:15;10.73;;;9.40;;
23129;SDS011;11734;51.046;13.778;2023-02-28T04:42:43;12.07;;;9.50;;
23129;SDS011;11734;51.046;13.778;2023-02-28T04:45:10;12.67;;;9.47;;
23129;SDS011;11734;51.046;13.778;2023-02-28T04:47:37;12.20;;;9.63;;
23129;SDS011;11734;51.046;13.778;2023-02-28T04:50:04;13.70;;;10.40;;
23129;SDS011;11734;51.046;13.778;2023-02-28T04:52:32;12.57;;;9.83;;
23129;SDS011;11734;51.046;13.778;2023-02-28T04:54:59;12.27;;;9.87;;
23129;SDS011;11734;51.046;13.778;2023-02-28T04:57:26;13.73;;;10.13;;
23129;SDS011;11734;51.046;13.778;2023-02-28T04:59:54;13.77;;;10.67;;
23129;SDS011;11734;51.046;13.778;2023-02-28T05:02:21;14.03;;;10.03;;
23129;SDS011;11734;51.046;13.778;2023-02-28T05:04:50;13.17;;;10.17;;
23129;SDS011;11734;51.046;13.778;2023-02-28T05:07:17;15.33;;;11.57;;
23129;SDS011;11734;51.046;13.778;2023-02-28T05:09:44;14.73;;;10.47;;
23129;SDS011;11734;51.046;13.778;2023-02-28T05:12:12;13.87;;;10.77;;
23129;SDS011;11734;51.046;13.778;2023-02-28T05:14:39;14.23;;;11.33;;
23129;SDS011;11734;51.046;13.778;2023-02-28T05:17:06;15.70;;;11.27;;
23129;SDS011;11734;51.046;13.778;2023-02-28T05:19:33;14.37;;;11.20;;
23129;SDS011;11734;51.046;13.778;2023-02-28T05:22:01;14.90;;;11.17;;
23129;SDS011;11734;51.046;13.778;2023-02-28T05:24:29;15.80;;;11.53;;
23129;SDS011;11734;51.046;13.778;2023-02-28T05:26:56;13.43;;;11.40;;
23129;SDS011;11734;51.046;13.778;2023-02-28T05:29:24;39.30;;;26.53;;
23129;SDS011;11734;51.046;13.778;2023-02-28T05:31:51;33.87;;;25.13;;
23129;SDS011;11734;51.046;13.778;2023-02-28T05:34:18;14.67;;;11.80;;
23129;SDS011;11734;51.046;13.778;2023-02-28T05:36:46;17.10;;;11.63;;
23129;SDS011;11734;51.046;13.778;2023-02-28T05:39:13;14.97;;;11.13;;
23129;SDS011;11734;51.046;13.778;2023-02-28T05:41:41;17.10;;;11.80;;
23129;SDS011;11734;51.046;13.778;2023-02-28T05:44:09;16.10;;;11.77;;
23129;SDS011;11734;51.046;13.778;2023-02-28T05:46:36;15.53;;;11.20;;
23129;SDS011;11734;51.046;13.778;2023-02-28T05:49:04;17.97;;;11.43;;
23129;SDS011;11734;51.046;13.778;2023-02-28T05:51:32;14.90;;;11.07;;
23129;SDS011;11734;51.046;13.778;2023-02-28T05:54:02;14.80;;;10.80;;
23129;SDS011;11734;51.046;13.778;2023-02-28T05:56:30;16.00;;;12.13;;
23129;SDS011;11734;51.046;13.778;2023-02-28T05:58:57;16.90;;;12.07;;
23129;SDS011;11734;51.046;13.778;2023-02-28T06:01:30;15.77;;;11.93;;
23129;SDS011;11734;51.046;13.778;2023-02-28T06:03:58;14.60;;;11.50;;
23129;SDS011;11734;51.046;13.778;2023-02-28T06:06:26;15.50;;;11.77;;
23129;SDS011;11734;51.046;13.778;2023-02-28T06:08:54;27.70;;;18.87;;
23129;SDS011;11734;51.046;13.778;2023-02-28T06:11:21;45.97;;;31.67;;
23129;SDS011;11734;51.046;13.778;2023-02-28T06:13:55;16.33;;;12.63;;
23129;SDS011;11734;51.046;13.778;2023-02-28T06:16:23;15.70;;;11.57;;
23129;SDS011;11734;51.046;13.778;2023-02-28T06:18:51;16.87;;;13.00;;
23129;SDS011;11734;51.046;13.778;2023-02-28T06:21:19;16.97;;;12.27;;
23129;SDS011;11734;51.046;13.778;2023-02-28T06:23:46;16.80;;;12.20;;
23129;SDS011;11734;51.046;13.778;2023-02-28T06:26:13;18.07;;;12.43;;
23129;SDS011;11734;51.046;13.778;2023-02-28T06:28:41;17.03;;;12.47;;
23129;SDS011;11734;51.046;13.778;2023-02-28T06:31:09;15.30;;;11.93;;
23129;SDS011;11734;51.046;13.778;2023-02-28T06:33:37;15.10;;;11.93;;
23129;SDS011;11734;51.046;13.778;2023-02-28T06:36:05;15.97;;;11.50;;
23129;SDS011;11734;51.046;13.778;2023-02-28T06:38:32;16.33;;;12.03;;
23129;SDS011;11734;51.046;13.778;2023-02-28T06:41:00;16.00;;;11.90;;
23129;SDS011;11734;51.046;13.778;2023-02-28T06:43:29;16.73;;;11.97;;
23129;SDS011;11734;51.046;13.778;2023-02-28T06:45:57;17.57;;;11.97;;
23129;SDS011;11734;51.046;13.778;2023-02-28T06:48:25;16.53;;;11.73;;
23129;SDS011;11734;51.046;13.778;2023-02-28T06:53:50;14.97;;;10.40;;
23129;SDS011;11734;51.046;13.778;2023-02-28T06:56:18;14.40;;;10.40;;
23129;SDS011;11734;51.046;13.778;2023-02-28T06:58:47;15.77;;;10.50;;
23129;SDS011;11734;51.046;13.778;2023-02-28T07:01:15;14.03;;;10.47;;
23129;SDS011;11734;51.046;13.778;2023-02-28T07:03:42;13.10;;;10.30;;
23129;SDS011;11734;51.046;13.778;2023-02-28T07:06:09;14.50;;;10.30;;
23129;SDS011;11734;51.046;13.778;2023-02-28T07:08:37;15.50;;;10.37;;
23129;SDS011;11734;51.046;13.778;2023-02-28T07:11:06;12.93;;;9.47;;
23129;SDS011;11734;51.046;13.778;2023-02-28T07:13:33;12.93;;;9.50;;
23129;SDS011;11734;51.046;13.778;2023-02-28T07:16:02;14.27;;;9.67;;
23129;SDS011;11734;51.046;13.778;2023-02-28T07:18:30;12.40;;;8.53;;
23129;SDS011;11734;51.046;13.778;2023-02-28T07:20:57;11.37;;;8.13;;
23129;SDS011;11734;51.046;13.778;2023-02-28T07:23:25;13.30;;;8.90;;
23129;SDS011;11734;51.046;13.778;2023-02-28T07:25:52;14.97;;;9.20;;
23129;SDS011;11734;51.046;13.778;2023-02-28T07:28:20;13.07;;;9.20;;
23129;SDS011;11734;51.046;13.778;2023-02-28T07:30:47;12.43;;;8.27;;
23129;SDS011;11734;51.046;13.778;2023-02-28T07:33:15;12.17;;;8.73;;
23129;SDS011;11734;51.046;13.778;2023-02-28T07:35:42;10.90;;;8.87;;
23129;SDS011;11734;51.046;13.778;2023-02-28T07:38:10;11.57;;;8.77;;
23129;SDS011;11734;51.046;13.778;2023-02-28T07:40:39;13.57;;;9.30;;
23129;SDS011;11734;51.046;13.778;2023-02-28T07:43:07;13.57;;;9.10;;
23129;SDS011;11734;51.046;13.778;2023-02-28T07:45:34;12.17;;;8.47;;
23129;SDS011;11734;51.046;13.778;2023-02-28T07:48:02;13.17;;;9.20;;
23129;SDS011;11734;51.046;13.778;2023-02-28T07:50:29;11.50;;;8.70;;
23129;SDS011;11734;51.046;13.778;2023-02-28T07:52:58;13.43;;;8.90;;
23129;SDS011;11734;51.046;13.778;2023-02-28T07:55:25;12.07;;;8.50;;
23129;SDS011;11734;51.046;13.778;2023-02-28T07:57:52;13.37;;;8.77;;
23129;SDS011;11734;51.046;13.778;2023-02-28T08:00:20;11.30;;;8.70;;
23129;SDS011;11734;51.046;13.778;2023-02-28T08:02:48;12.20;;;9.07;;
23129;SDS011;11734;51.046;13.778;2023-02-28T08:05:15;12.73;;;8.73;;
23129;SDS011;11734;51.046;13.778;2023-02-28T08:07:45;11.17;;;8.37;;
23129;SDS011;11734;51.046;13.778;2023-02-28T08:10:13;12.10;;;8.97;;
23129;SDS011;11734;51.046;13.778;2023-02-28T08:12:41;12.17;;;9.13;;
23129;SDS011;11734;51.046;13.778;2023-02-28T08:15:08;12.10;;;9.33;;
23129;SDS011;11734;51.046;13.778;2023-02-28T08:17:36;12.97;;;8.90;;
23129;SDS011;11734;51.046;13.778;2023-02-28T08:20:03;13.07;;;9.07;;
23129;SDS011;11734;51.046;13.778;2023-02-28T08:22:31;13.93;;;9.67;;
23129;SDS011;11734;51.046;13.778;2023-02-28T08:24:58;13.83;;;9.37;;
23129;SDS011;11734;51.046;13.778;2023-02-28T08:27:25;12.83;;;9.30;;
23129;SDS011;11734;51.046;13.778;2023-02-28T08:29:52;13.73;;;9.27;;
23129;SDS011;11734;51.046;13.778;2023-02-28T08:32:20;11.73;;;8.97;;
23129;SDS011;11734;51.046;13.778;2023-02-28T08:34:56;13.97;;;9.77;;
23129;SDS011;11734;51.046;13.778;2023-02-28T08:37:23;12.50;;;8.73;;
23129;SDS011;11734;51.046;13.778;2023-02-28T08:39:51;13.53;;;9.47;;
23129;SDS011;11734;51.046;13.778;2023-02-28T08:42:21;13.67;;;9.43;;
23129;SDS011;11734;51.046;13.778;2023-02-28T08:44:49;12.00;;;9.10;;
23129;SDS011;11734;51.046;13.778;2023-02-28T08:47:16;14.07;;;9.40;;
23129;SDS011;11734;51.046;13.778;2023-02-28T08:49:43;13.00;;;8.90;;
23129;SDS011;11734;51.046;13.778;2023-02-28T08:52:10;11.93;;;8.40;;
23129;SDS011;11734;51.046;13.778;2023-02-28T08:54:38;13.47;;;8.37;;
23129;SDS011;11734;51.046;13.778;2023-02-28T08:57:05;13.63;;;8.57;;
23129;SDS011;11734;51.046;13.778;2023-02-28T08:59:33;12.30;;;8.47;;
23129;SDS011;11734;51.046;13.778;2023-02-28T09:02:00;12.07;;;8.33;;
23129;SDS011;11734;51.046;13.778;2023-02-28T09:04:27;10.13;;;8.07;;
23129;SDS011;11734;51.046;13.778;2023-02-28T09:06:57;11.03;;;7.90;;
23129;SDS011;11734;51.046;13.778;2023-02-28T09:09:24;11.50;;;8.10;;
23129;SDS011;11734;51.046;13.778;2023-02-28T09:11:51;11.03;;;8.30;;
23129;SDS011;11734;51.046;13.778;2023-02-28T09:14:19;10.57;;;7.73;;
23129;SDS011;11734;51.046;13.778;2023-02-28T09:16:46;11.07;;;7.93;;
23129;SDS011;11734;51.046;13.778;2023-02-28T09:19:14;10.57;;;7.97;;
23129;SDS011;11734;51.046;13.778;2023-02-28T09:21:41;10.23;;;7.80;;
23129;SDS011;11734;51.046;13.778;2023-02-28T09:24:09;9.47;;;7.33;;
23129;SDS011;11734;51.046;13.778;2023-02-28T09:26:38;9.70;;;7.70;;
23129;SDS011;11734;51.046;13.778;2023-02-28T09:29:16;10.13;;;8.03;;
23129;SDS011;11734;51.046;13.778;2023-02-28T09:31:44;12.67;;;8.17;;
23129;SDS011;11734;51.046;13.778;2023-02-28T09:34:11;9.20;;;7.40;;
23129;SDS011;11734;51.046;13.778;2023-02-28T09:36:39;9.77;;;6.97;;
23129;SDS011;11734;51.046;13.778;2023-02-28T09:39:11;9.80;;;6.57;;
23129;SDS011;11734;51.046;13.778;2023-02-28T09:41:42;8.40;;;6.63;;
23129;SDS011;11734;51.046;13.778;2023-02-28T09:46:56;8.27;;;6.90;;
23129;SDS011;11734;51.046;13.778;2023-02-28T09:49:28;9.63;;;6.67;;
23129;SDS011;11734;51.046;13.778;2023-02-28T09:52:03;7.70;;;5.63;;
23129;SDS011;11734;51.046;13.778;2023-02-28T09:54:32;8.30;;;5.73;;
23129;SDS011;11734;51.046;13.778;2023-02-28T09:59:36;8.73;;;6.20;;
23129;SDS011;11734;51.046;13.778;2023-02-28T10:09:50;9.10;;;7.23;;
23129;SDS011;11734;51.046;13.778;2023-02-28T10:12:19;9.97;;;6.33;;
23129;SDS011;11734;51.046;13.778;2023-02-28T10:14:49;9.20;;;6.87;;
23129;SDS011;11734;51.046;13.778;2023-02-28T10:17:22;10.53;;;5.93;;
23129;SDS011;11734;51.046;13.778;2023-02-28T10:19:56;8.93;;;6.77;;
23129;SDS011;11734;51.046;13.778;2023-02-28T10:22:33;9.20;;;6.40;;
23129;SDS011;11734;51.046;13.778;2023-02-28T10:25:04;8.93;;;6.57;;
23129;SDS011;11734;51.046;13.778;2023-02-28T10:27:33;9.50;;;6.67;;
23129;SDS011;11734;51.046;13.778;2023-02-28T10:30:01;8.87;;;6.83;;
23129;SDS011;11734;51.046;13.778;2023-02-28T10:32:30;9.67;;;7.20;;
23129;SDS011;11734;51.046;13.778;2023-02-28T10:35:10;8.63;;;7.13;;
23129;SDS011;11734;51.046;13.778;2023-02-28T10:37:41;9.20;;;7.13;;
23129;SDS011;11734;51.046;13.778;2023-02-28T10:40:24;10.87;;;7.50;;
23129;SDS011;11734;51.046;13.778;2023-02-28T10:45:23;14.03;;;8.50;;
23129;SDS011;11734;51.046;13.778;2023-02-28T11:01:22;13.00;;;8.47;;
23129;SDS011;11734;51.046;13.778;2023-02-28T11:03:50;9.20;;;7.23;;
23129;SDS011;11734;51.046;13.778;2023-02-28T11:06:23;10.03;;;7.10;;
23129;SDS011;11734;51.046;13.778;2023-02-28T11:08:57;10.20;;;7.27;;
23129;SDS011;11734;51.046;13.778;2023-02-28T11:11:28;8.90;;;7.33;;
23129;SDS011;11734;51.046;13.778;2023-02-28T11:14:02;12.10;;;8.27;;
23129;SDS011;11734;51.046;13.778;2023-02-28T11:16:34;11.70;;;7.50;;
23129;SDS011;11734;51.046;13.778;2023-02-28T11:19:03;12.00;;;8.17;;
23129;SDS011;11734;51.046;13.778;2023-02-28T11:21:35;11.07;;;8.10;;
23129;SDS011;11734;51.046;13.778;2023-02-28T11:24:15;10.07;;;7.03;;
23129;SDS011;11734;51.046;13.778;2023-02-28T11:26:47;10.07;;;7.60;;
23129;SDS011;11734;51.046;13.778;2023-02-28T11:29:25;10.27;;;7.23;;
23129;SDS011;11734;51.046;13.778;2023-02-28T11:34:36;8.73;;;6.63;;
23129;SDS011;11734;51.046;13.778;2023-02-28T11:37:05;9.27;;;7.23;;
23129;SDS011;11734;51.046;13.778;2023-02-28T11:39:33;7.63;;;6.63;;
23129;SDS011;11734;51.046;13.778;2023-02-28T11:45:02;9.60;;;7.57;;
23129;SDS011;11734;51.046;13.778;2023-02-28T11:47:44;7.87;;;6.60;;
23129;SDS011;11734;51.046;13.778;2023-02-28T11:52:48;9.50;;;6.53;;
23129;SDS011;11734;51.046;13.778;2023-02-28T12:03:10;9.43;;;7.13;;
23129;SDS011;11734;51.046;13.778;2023-02-28T12:08:18;9.57;;;7.10;;
23129;SDS011;11734;51.046;13.778;2023-02-28T12:17:02;7.87;;;6.37;;
23129;SDS011;11734;51.046;13.778;2023-02-28T12:25:43;11.30;;;7.50;;
23129;SDS011;11734;51.046;13.778;2023-02-28T12:28:37;12.57;;;7.57;;
23129;SDS011;11734;51.046;13.778;2023-02-28T12:34:06;8.03;;;6.50;;
23129;SDS011;11734;51.046;13.778;2023-02-28T12:36:38;8.73;;;6.87;;
23129;SDS011;11734;51.046;13.778;2023-02-28T12:39:22;10.00;;;7.53;;
23129;SDS011;11734;51.046;13.778;2023-02-28T12:41:54;10.63;;;8.00;;
23129;SDS011;11734;51.046;13.778;2023-02-28T12:44:30;10.87;;;7.63;;
23129;SDS011;11734;51.046;13.778;2023-02-28T12:47:00;11.20;;;8.10;;
23129;SDS011;11734;51.046;13.778;2023-02-28T12:49:33;11.80;;;7.80;;
23129;SDS011;11734;51.046;13.778;2023-02-28T12:52:01;11.53;;;8.53;;
23129;SDS011;11734;51.046;13.778;2023-02-28T12:54:44;8.37;;;6.53;;
23129;SDS011;11734;51.046;13.778;2023-02-28T13:00:04;12.23;;;8.30;;
23129;SDS011;11734;51.046;13.778;2023-02-28T13:08:07;11.90;;;8.63;;
23129;SDS011;11734;51.046;13.778;2023-02-28T13:10:39;10.13;;;8.00;;
23129;SDS011;11734;51.046;13.778;2023-02-28T13:13:12;10.57;;;7.83;;
23129;SDS011;11734;51.046;13.778;2023-02-28T13:15:40;10.47;;;8.00;;
23129;SDS011;11734;51.046;13.778;2023-02-28T13:18:26;11.10;;;8.63;;
23129;SDS011;11734;51.046;13.778;2023-02-28T13:20:54;12.27;;;8.20;;
23129;SDS011;11734;51.046;13.778;2023-02-28T13:26:08;13.93;;;9.63;;
23129;SDS011;11734;51.046;13.778;2023-02-28T13:31:21;10.80;;;8.43;;
23129;SDS011;11734;51.046;13.778;2023-02-28T13:36:26;11.43;;;9.23;;
23129;SDS011;11734;51.046;13.778;2023-02-28T13:38:59;10.37;;;8.50;;
23129;SDS011;11734;51.046;13.778;2023-02-28T13:44:03;12.67;;;8.83;;
23129;SDS011;11734;51.046;13.778;2023-02-28T13:46:32;12.33;;;10.00;;
23129;SDS011;11734;51.046;13.778;2023-02-28T13:51:48;14.53;;;9.03;;
23129;SDS011;11734;51.046;13.778;2023-02-28T13:59:26;13.50;;;9.63;;
23129;SDS011;11734;51.046;13.778;2023-02-28T14:02:45;12.80;;;8.97;;
23129;SDS011;11734;51.046;13.778;2023-02-28T14:04:46;9.87;;;7.30;;
23129;SDS011;11734;51.046;13.778;2023-02-28T14:07:20;14.27;;;9.40;;
23129;SDS011;11734;51.046;13.778;2023-02-28T14:09:51;12.57;;;9.37;;
23129;SDS011;11734;51.046;13.778;2023-02-28T14:17:57;13.60;;;8.73;;
23129;SDS011;11734;51.046;13.778;2023-02-28T14:20:26;12.07;;;8.73;;
23129;SDS011;11734;51.046;13.778;2023-02-28T14:30:29;12.87;;;9.17;;
23129;SDS011;11734;51.046;13.778;2023-02-28T14:37:54;13.00;;;9.27;;
23129;SDS011;11734;51.046;13.778;2023-02-28T14:40:29;11.40;;;8.70;;
23129;SDS011;11734;51.046;13.778;2023-02-28T14:42:58;13.27;;;9.13;;
23129;SDS011;11734;51.046;13.778;2023-02-28T14:45:27;15.97;;;10.13;;
23129;SDS011;11734;51.046;13.778;2023-02-28T14:47:56;13.90;;;9.03;;
23129;SDS011;11734;51.046;13.778;2023-02-28T14:50:35;11.97;;;8.87;;
23129;SDS011;11734;51.046;13.778;2023-02-28T14:53:03;10.97;;;8.90;;
23129;SDS011;11734;51.046;13.778;2023-02-28T14:55:36;11.97;;;9.50;;
23129;SDS011;11734;51.046;13.778;2023-02-28T14:58:04;14.67;;;9.97;;
23129;SDS011;11734;51.046;13.778;2023-02-28T15:00:35;14.17;;;9.43;;
23129;SDS011;11734;51.046;13.778;2023-02-28T15:05:53;12.07;;;9.40;;
23129;SDS011;11734;51.046;13.778;2023-02-28T15:08:21;13.87;;;10.10;;
23129;SDS011;11734;51.046;13.778;2023-02-28T15:10:55;11.40;;;9.70;;
23129;SDS011;11734;51.046;13.778;2023-02-28T15:13:26;15.03;;;10.50;;
23129;SDS011;11734;51.046;13.778;2023-02-28T15:15:59;14.93;;;10.00;;
23129;SDS011;11734;51.046;13.778;2023-02-28T15:21:01;14.50;;;10.37;;
23129;SDS011;11734;51.046;13.778;2023-02-28T15:23:29;15.43;;;9.83;;
23129;SDS011;11734;51.046;13.778;2023-02-28T15:25:57;14.50;;;9.33;;
23129;SDS011;11734;51.046;13.778;2023-02-28T15:28:25;12.03;;;9.37;;
23129;SDS011;11734;51.046;13.778;2023-02-28T15:30:58;13.80;;;9.63;;
23129;SDS011;11734;51.046;13.778;2023-02-28T15:33:29;12.23;;;9.03;;
23129;SDS011;11734;51.046;13.778;2023-02-28T15:36:04;12.47;;;9.67;;
23129;SDS011;11734;51.046;13.778;2023-02-28T15:38:33;12.40;;;8.83;;
23129;SDS011;11734;51.046;13.778;2023-02-28T15:41:01;13.13;;;9.67;;
23129;SDS011;11734;51.046;13.778;2023-02-28T15:43:35;13.83;;;9.20;;
23129;SDS011;11734;51.046;13.778;2023-02-28T15:46:10;13.97;;;9.47;;
23129;SDS011;11734;51.046;13.778;2023-02-28T15:48:51;15.07;;;10.10;;
23129;SDS011;11734;51.046;13.778;2023-02-28T15:51:23;14.60;;;10.93;;
23129;SDS011;11734;51.046;13.778;2023-02-28T15:53:54;14.30;;;9.90;;
23129;SDS011;11734;51.046;13.778;2023-02-28T15:56:25;13.37;;;10.07;;
23129;SDS011;11734;51.046;13.778;2023-02-28T15:58:54;13.77;;;10.10;;
23129;SDS011;11734;51.046;13.778;2023-02-28T16:01:29;13.33;;;9.83;;
23129;SDS011;11734;51.046;13.778;2023-02-28T16:04:05;16.03;;;9.63;;
23129;SDS011;11734;51.046;13.778;2023-02-28T16:09:01;15.07;;;10.53;;
23129;SDS011;11734;51.046;13.778;2023-02-28T16:11:28;17.43;;;11.10;;
23129;SDS011;11734;51.046;13.778;2023-02-28T16:13:57;13.57;;;9.90;;
23129;SDS011;11734;51.046;13.778;2023-02-28T16:16:24;15.23;;;10.10;;
23129;SDS011;11734;51.046;13.778;2023-02-28T16:18:53;13.67;;;9.70;;
23129;SDS011;11734;51.046;13.778;2023-02-28T16:21:21;13.87;;;9.97;;
23129;SDS011;11734;51.046;13.778;2023-02-28T16:23:48;16.37;;;10.80;;
23129;SDS011;11734;51.046;13.778;2023-02-28T16:26:22;13.87;;;10.33;;
23129;SDS011;11734;51.046;13.778;2023-02-28T16:28:51;14.67;;;9.80;;
23129;SDS011;11734;51.046;13.778;2023-02-28T16:31:18;15.83;;;10.50;;
23129;SDS011;11734;51.046;13.778;2023-02-28T16:33:46;15.90;;;10.73;;
23129;SDS011;11734;51.046;13.778;2023-02-28T16:36:18;15.30;;;10.83;;
23129;SDS011;11734;51.046;13.778;2023-02-28T16:38:45;14.23;;;10.50;;
23129;SDS011;11734;51.046;13.778;2023-02-28T16:41:14;14.60;;;10.07;;
23129;SDS011;11734;51.046;13.778;2023-02-28T16:43:49;12.53;;;9.83;;
23129;SDS011;11734;51.046;13.778;2023-02-28T16:46:17;14.27;;;10.40;;
23129;SDS011;11734;51.046;13.778;2023-02-28T16:48:44;13.70;;;10.10;;
23129;SDS011;11734;51.046;13.778;2023-02-28T16:51:12;14.43;;;10.23;;
23129;SDS011;11734;51.046;13.778;2023-02-28T16:53:40;17.37;;;10.47;;
23129;SDS011;11734;51.046;13.778;2023-02-28T16:56:13;15.67;;;10.70;;
23129;SDS011;11734;51.046;13.778;2023-02-28T16:58:41;14.93;;;10.03;;
23129;SDS011;11734;51.046;13.778;2023-02-28T17:01:08;15.80;;;10.97;;